sensor_id;sensor_type;location;lat;lon;timestamp;P1;durP1;ratioP1;P2;durP2;ratioP2
351;SDS011;164;50.784;6.496;2022-12-18T00:00:12;22.33;;;18.67;;
351;SDS011;164;50.784;6.496;2022-12-18T00:02:44;31.00;;;21.75;;
351;SDS011;164;50.784;6.496;2022-12-18T00:05:13;24.35;;;17.75;;
351;SDS011;164;50.784;6.496;2022-12-18T00:07:58;20.98;;;17.20;;
351;SDS011;164;50.784;6.496;2022-12-18T00:10:28;22.17;;;16.23;;
351;SDS011;164;50.784;6.496;2022-12-18T00:12:55;24.63;;;18.50;;
351;SDS011;164;50.784;6.496;2022-12-18T00:15:25;20.08;;;17.48;;
351;SDS011;164;50.784;6.496;2022-12-18T00:17:52;24.23;;;17.70;;
351;SDS011;164;50.784;6.496;2022-12-18T00:20:24;22.50;;;15.88;;
351;SDS011;164;50.784;6.496;2022-12-18T00:22:57;18.77;;;15.80;;
351;SDS011;164;50.784;6.496;2022-12-18T00:25:32;20.00;;;17.25;;
351;SDS011;164;50.784;6.496;2022-12-18T00:28:03;19.25;;;15.35;;
351;SDS011;164;50.784;6.496;2022-12-18T00:30:43;18.95;;;17.35;;
351;SDS011;164;50.784;6.496;2022-12-18T00:33:13;21.48;;;16.10;;
351;SDS011;164;50.784;6.496;2022-12-18T00:35:46;19.77;;;16.25;;
351;SDS011;164;50.784;6.496;2022-12-18T00:38:16;18.75;;;16.00;;
351;SDS011;164;50.784;6.496;2022-12-18T00:40:49;19.00;;;15.73;;
351;SDS011;164;50.784;6.496;2022-12-18T00:43:24;19.48;;;14.65;;
351;SDS011;164;50.784;6.496;2022-12-18T00:45:56;15.70;;;13.63;;
351;SDS011;164;50.784;6.496;2022-12-18T00:48:25;21.08;;;17.17;;
351;SDS011;164;50.784;6.496;2022-12-18T00:51:06;17.05;;;16.15;;
351;SDS011;164;50.784;6.496;2022-12-18T00:53:34;18.42;;;14.93;;
351;SDS011;164;50.784;6.496;2022-12-18T00:56:01;17.75;;;15.35;;
351;SDS011;164;50.784;6.496;2022-12-18T00:58:38;19.70;;;15.30;;
351;SDS011;164;50.784;6.496;2022-12-18T01:01:08;17.73;;;13.82;;
351;SDS011;164;50.784;6.496;2022-12-18T01:03:35;19.08;;;15.40;;
351;SDS011;164;50.784;6.496;2022-12-18T01:06:07;16.60;;;13.30;;
351;SDS011;164;50.784;6.496;2022-12-18T01:08:38;20.50;;;15.63;;
351;SDS011;164;50.784;6.496;2022-12-18T01:11:13;18.35;;;15.30;;
351;SDS011;164;50.784;6.496;2022-12-18T01:13:41;15.82;;;13.77;;
351;SDS011;164;50.784;6.496;2022-12-18T01:16:20;17.35;;;13.57;;
351;SDS011;164;50.784;6.496;2022-12-18T01:18:50;17.27;;;13.73;;
351;SDS011;164;50.784;6.496;2022-12-18T01:21:22;18.40;;;13.45;;
351;SDS011;164;50.784;6.496;2022-12-18T01:23:52;15.32;;;13.30;;
351;SDS011;164;50.784;6.496;2022-12-18T01:26:23;17.27;;;13.75;;
351;SDS011;164;50.784;6.496;2022-12-18T01:29:08;17.88;;;15.18;;
351;SDS011;164;50.784;6.496;2022-12-18T01:31:50;16.65;;;13.70;;
351;SDS011;164;50.784;6.496;2022-12-18T01:34:31;22.67;;;15.95;;
351;SDS011;164;50.784;6.496;2022-12-18T01:37:04;18.00;;;13.40;;
351;SDS011;164;50.784;6.496;2022-12-18T01:39:32;18.80;;;15.15;;
351;SDS011;164;50.784;6.496;2022-12-18T01:42:12;18.83;;;14.18;;
351;SDS011;164;50.784;6.496;2022-12-18T01:47:34;16.75;;;12.93;;
351;SDS011;164;50.784;6.496;2022-12-18T01:50:02;18.83;;;14.02;;
351;SDS011;164;50.784;6.496;2022-12-18T01:52:46;17.08;;;14.65;;
351;SDS011;164;50.784;6.496;2022-12-18T01:55:20;17.67;;;14.02;;
351;SDS011;164;50.784;6.496;2022-12-18T01:57:52;15.55;;;14.00;;
351;SDS011;164;50.784;6.496;2022-12-18T02:00:20;21.38;;;12.90;;
351;SDS011;164;50.784;6.496;2022-12-18T02:02:52;13.68;;;10.35;;
351;SDS011;164;50.784;6.496;2022-12-18T02:05:23;15.77;;;13.20;;
351;SDS011;164;50.784;6.496;2022-12-18T02:07:57;19.58;;;13.52;;
351;SDS011;164;50.784;6.496;2022-12-18T02:10:29;17.73;;;13.38;;
351;SDS011;164;50.784;6.496;2022-12-18T02:13:02;17.13;;;13.90;;
351;SDS011;164;50.784;6.496;2022-12-18T02:15:38;18.20;;;14.73;;
351;SDS011;164;50.784;6.496;2022-12-18T02:18:11;16.90;;;14.00;;
351;SDS011;164;50.784;6.496;2022-12-18T02:20:43;19.75;;;14.10;;
351;SDS011;164;50.784;6.496;2022-12-18T02:23:38;16.88;;;12.73;;
351;SDS011;164;50.784;6.496;2022-12-18T02:26:17;15.95;;;14.20;;
351;SDS011;164;50.784;6.496;2022-12-18T02:28:49;14.60;;;12.35;;
351;SDS011;164;50.784;6.496;2022-12-18T02:31:25;18.45;;;13.88;;
351;SDS011;164;50.784;6.496;2022-12-18T02:33:58;14.70;;;12.65;;
351;SDS011;164;50.784;6.496;2022-12-18T02:36:27;18.58;;;14.05;;
351;SDS011;164;50.784;6.496;2022-12-18T02:39:01;14.88;;;13.60;;
351;SDS011;164;50.784;6.496;2022-12-18T02:41:29;18.80;;;13.70;;
351;SDS011;164;50.784;6.496;2022-12-18T02:43:58;19.75;;;14.85;;
351;SDS011;164;50.784;6.496;2022-12-18T02:46:37;18.55;;;13.93;;
351;SDS011;164;50.784;6.496;2022-12-18T02:49:07;21.50;;;13.73;;
351;SDS011;164;50.784;6.496;2022-12-18T02:51:40;16.88;;;14.07;;
351;SDS011;164;50.784;6.496;2022-12-18T02:54:31;18.13;;;14.63;;
351;SDS011;164;50.784;6.496;2022-12-18T02:57:32;14.88;;;12.25;;
351;SDS011;164;50.784;6.496;2022-12-18T03:00:04;18.05;;;15.80;;
351;SDS011;164;50.784;6.496;2022-12-18T03:02:48;15.75;;;13.70;;
351;SDS011;164;50.784;6.496;2022-12-18T03:05:36;18.27;;;13.43;;
351;SDS011;164;50.784;6.496;2022-12-18T03:08:08;20.45;;;14.65;;
351;SDS011;164;50.784;6.496;2022-12-18T03:10:44;17.35;;;13.15;;
351;SDS011;164;50.784;6.496;2022-12-18T03:13:23;16.90;;;12.98;;
351;SDS011;164;50.784;6.496;2022-12-18T03:15:55;20.17;;;13.90;;
351;SDS011;164;50.784;6.496;2022-12-18T03:18:29;19.52;;;13.02;;
351;SDS011;164;50.784;6.496;2022-12-18T03:21:15;18.92;;;14.45;;
351;SDS011;164;50.784;6.496;2022-12-18T03:24:07;19.08;;;14.27;;
351;SDS011;164;50.784;6.496;2022-12-18T03:26:34;18.15;;;13.73;;
351;SDS011;164;50.784;6.496;2022-12-18T03:29:07;15.23;;;13.95;;
351;SDS011;164;50.784;6.496;2022-12-18T03:31:37;18.13;;;13.43;;
351;SDS011;164;50.784;6.496;2022-12-18T03:34:11;20.98;;;14.25;;
351;SDS011;164;50.784;6.496;2022-12-18T03:36:54;17.58;;;14.20;;
351;SDS011;164;50.784;6.496;2022-12-18T03:39:24;17.63;;;14.50;;
351;SDS011;164;50.784;6.496;2022-12-18T03:41:58;19.38;;;13.95;;
351;SDS011;164;50.784;6.496;2022-12-18T03:44:34;16.13;;;12.95;;
351;SDS011;164;50.784;6.496;2022-12-18T03:47:05;14.40;;;12.20;;
351;SDS011;164;50.784;6.496;2022-12-18T03:49:38;17.58;;;13.77;;
351;SDS011;164;50.784;6.496;2022-12-18T03:52:13;16.45;;;13.55;;
351;SDS011;164;50.784;6.496;2022-12-18T03:54:47;12.63;;;11.60;;
351;SDS011;164;50.784;6.496;2022-12-18T03:57:20;15.95;;;13.15;;
351;SDS011;164;50.784;6.496;2022-12-18T04:00:04;16.55;;;14.43;;
351;SDS011;164;50.784;6.496;2022-12-18T04:02:42;15.32;;;12.60;;
351;SDS011;164;50.784;6.496;2022-12-18T04:05:16;15.75;;;13.00;;
351;SDS011;164;50.784;6.496;2022-12-18T04:08:05;16.80;;;13.30;;
351;SDS011;164;50.784;6.496;2022-12-18T04:10:47;16.92;;;13.55;;
351;SDS011;164;50.784;6.496;2022-12-18T04:13:21;15.95;;;13.63;;
351;SDS011;164;50.784;6.496;2022-12-18T04:15:54;15.93;;;13.63;;
351;SDS011;164;50.784;6.496;2022-12-18T04:18:22;14.60;;;12.90;;
351;SDS011;164;50.784;6.496;2022-12-18T04:20:49;13.85;;;12.55;;
351;SDS011;164;50.784;6.496;2022-12-18T04:23:22;16.83;;;13.20;;
351;SDS011;164;50.784;6.496;2022-12-18T04:26:03;20.60;;;13.68;;
351;SDS011;164;50.784;6.496;2022-12-18T04:28:30;14.25;;;12.32;;
351;SDS011;164;50.784;6.496;2022-12-18T04:30:58;15.15;;;12.18;;
351;SDS011;164;50.784;6.496;2022-12-18T04:33:25;15.43;;;12.57;;
351;SDS011;164;50.784;6.496;2022-12-18T04:35:55;17.10;;;13.35;;
351;SDS011;164;50.784;6.496;2022-12-18T04:38:28;20.17;;;13.90;;
351;SDS011;164;50.784;6.496;2022-12-18T04:41:01;15.60;;;14.32;;
351;SDS011;164;50.784;6.496;2022-12-18T04:43:31;14.80;;;11.77;;
351;SDS011;164;50.784;6.496;2022-12-18T04:46:08;18.80;;;14.07;;
351;SDS011;164;50.784;6.496;2022-12-18T04:48:41;14.77;;;13.38;;
351;SDS011;164;50.784;6.496;2022-12-18T04:51:11;19.50;;;13.50;;
351;SDS011;164;50.784;6.496;2022-12-18T04:53:42;17.17;;;12.45;;
351;SDS011;164;50.784;6.496;2022-12-18T04:56:10;16.23;;;13.73;;
351;SDS011;164;50.784;6.496;2022-12-18T04:58:43;15.60;;;12.43;;
351;SDS011;164;50.784;6.496;2022-12-18T05:01:15;13.95;;;12.13;;
351;SDS011;164;50.784;6.496;2022-12-18T05:03:50;19.52;;;13.38;;
351;SDS011;164;50.784;6.496;2022-12-18T05:06:17;17.83;;;14.18;;
351;SDS011;164;50.784;6.496;2022-12-18T05:08:47;14.57;;;12.32;;
351;SDS011;164;50.784;6.496;2022-12-18T05:11:14;16.05;;;13.13;;
351;SDS011;164;50.784;6.496;2022-12-18T05:13:49;18.40;;;13.90;;
351;SDS011;164;50.784;6.496;2022-12-18T05:16:26;18.85;;;14.48;;
351;SDS011;164;50.784;6.496;2022-12-18T05:18:55;19.48;;;15.40;;
351;SDS011;164;50.784;6.496;2022-12-18T05:21:28;17.20;;;13.65;;
351;SDS011;164;50.784;6.496;2022-12-18T05:24:05;17.08;;;14.85;;
351;SDS011;164;50.784;6.496;2022-12-18T05:26:35;19.38;;;14.80;;
351;SDS011;164;50.784;6.496;2022-12-18T05:29:19;15.75;;;12.93;;
351;SDS011;164;50.784;6.496;2022-12-18T05:32:04;18.58;;;13.88;;
351;SDS011;164;50.784;6.496;2022-12-18T05:34:37;18.05;;;13.32;;
351;SDS011;164;50.784;6.496;2022-12-18T05:37:07;17.38;;;13.55;;
351;SDS011;164;50.784;6.496;2022-12-18T05:39:35;20.85;;;15.30;;
351;SDS011;164;50.784;6.496;2022-12-18T05:42:08;17.40;;;13.68;;
351;SDS011;164;50.784;6.496;2022-12-18T05:44:43;15.10;;;11.98;;
351;SDS011;164;50.784;6.496;2022-12-18T05:50:04;21.55;;;13.82;;
351;SDS011;164;50.784;6.496;2022-12-18T05:52:33;19.08;;;13.88;;
351;SDS011;164;50.784;6.496;2022-12-18T05:55:01;19.80;;;14.70;;
351;SDS011;164;50.784;6.496;2022-12-18T05:57:30;16.95;;;13.80;;
351;SDS011;164;50.784;6.496;2022-12-18T06:00:03;18.77;;;13.35;;
351;SDS011;164;50.784;6.496;2022-12-18T06:02:36;18.20;;;14.07;;
351;SDS011;164;50.784;6.496;2022-12-18T06:05:19;20.52;;;13.65;;
351;SDS011;164;50.784;6.496;2022-12-18T06:07:49;19.95;;;14.77;;
351;SDS011;164;50.784;6.496;2022-12-18T06:10:23;19.92;;;15.02;;
351;SDS011;164;50.784;6.496;2022-12-18T06:13:13;19.13;;;14.93;;
351;SDS011;164;50.784;6.496;2022-12-18T06:15:40;16.30;;;13.82;;
351;SDS011;164;50.784;6.496;2022-12-18T06:18:10;19.02;;;16.00;;
351;SDS011;164;50.784;6.496;2022-12-18T06:20:39;18.95;;;14.13;;
351;SDS011;164;50.784;6.496;2022-12-18T06:23:06;17.67;;;15.32;;
351;SDS011;164;50.784;6.496;2022-12-18T06:25:37;21.58;;;16.33;;
351;SDS011;164;50.784;6.496;2022-12-18T06:28:13;20.10;;;16.98;;
351;SDS011;164;50.784;6.496;2022-12-18T06:30:43;21.73;;;15.20;;
351;SDS011;164;50.784;6.496;2022-12-18T06:33:12;18.17;;;14.60;;
351;SDS011;164;50.784;6.496;2022-12-18T06:38:46;21.17;;;14.20;;
351;SDS011;164;50.784;6.496;2022-12-18T06:41:21;20.30;;;15.52;;
351;SDS011;164;50.784;6.496;2022-12-18T06:43:54;19.38;;;15.25;;
351;SDS011;164;50.784;6.496;2022-12-18T06:46:39;20.95;;;16.00;;
351;SDS011;164;50.784;6.496;2022-12-18T06:49:12;18.30;;;14.88;;
351;SDS011;164;50.784;6.496;2022-12-18T06:51:46;24.00;;;16.45;;
351;SDS011;164;50.784;6.496;2022-12-18T06:54:24;20.15;;;16.25;;
351;SDS011;164;50.784;6.496;2022-12-18T06:56:56;18.98;;;15.02;;
351;SDS011;164;50.784;6.496;2022-12-18T06:59:26;21.45;;;16.10;;
351;SDS011;164;50.784;6.496;2022-12-18T07:01:56;19.95;;;16.55;;
351;SDS011;164;50.784;6.496;2022-12-18T07:04:27;21.23;;;15.63;;
351;SDS011;164;50.784;6.496;2022-12-18T07:06:54;22.80;;;18.20;;
351;SDS011;164;50.784;6.496;2022-12-18T07:09:23;21.85;;;18.27;;
351;SDS011;164;50.784;6.496;2022-12-18T07:11:56;19.25;;;16.25;;
351;SDS011;164;50.784;6.496;2022-12-18T07:14:25;19.75;;;16.83;;
351;SDS011;164;50.784;6.496;2022-12-18T07:16:53;22.05;;;17.25;;
351;SDS011;164;50.784;6.496;2022-12-18T07:19:20;22.27;;;17.90;;
351;SDS011;164;50.784;6.496;2022-12-18T07:21:47;22.40;;;17.92;;
351;SDS011;164;50.784;6.496;2022-12-18T07:24:19;24.05;;;17.33;;
351;SDS011;164;50.784;6.496;2022-12-18T07:26:50;22.90;;;19.23;;
351;SDS011;164;50.784;6.496;2022-12-18T07:29:23;23.10;;;16.95;;
351;SDS011;164;50.784;6.496;2022-12-18T07:31:58;24.48;;;18.20;;
351;SDS011;164;50.784;6.496;2022-12-18T07:34:37;22.60;;;16.65;;
351;SDS011;164;50.784;6.496;2022-12-18T07:37:04;21.27;;;18.60;;
351;SDS011;164;50.784;6.496;2022-12-18T07:39:43;23.98;;;17.17;;
351;SDS011;164;50.784;6.496;2022-12-18T07:42:25;21.23;;;16.30;;
351;SDS011;164;50.784;6.496;2022-12-18T07:45:01;20.05;;;17.17;;
351;SDS011;164;50.784;6.496;2022-12-18T07:47:28;22.77;;;18.05;;
351;SDS011;164;50.784;6.496;2022-12-18T07:50:10;29.85;;;18.73;;
351;SDS011;164;50.784;6.496;2022-12-18T07:52:41;23.90;;;18.58;;
351;SDS011;164;50.784;6.496;2022-12-18T07:55:11;21.38;;;17.30;;
351;SDS011;164;50.784;6.496;2022-12-18T07:57:42;23.42;;;18.35;;
351;SDS011;164;50.784;6.496;2022-12-18T08:00:10;23.08;;;18.63;;
351;SDS011;164;50.784;6.496;2022-12-18T08:02:38;21.52;;;15.93;;
351;SDS011;164;50.784;6.496;2022-12-18T08:05:08;19.98;;;16.17;;
351;SDS011;164;50.784;6.496;2022-12-18T08:07:35;25.20;;;18.95;;
351;SDS011;164;50.784;6.496;2022-12-18T08:10:06;22.45;;;17.80;;
351;SDS011;164;50.784;6.496;2022-12-18T08:12:36;24.42;;;17.42;;
351;SDS011;164;50.784;6.496;2022-12-18T08:15:06;20.90;;;17.90;;
351;SDS011;164;50.784;6.496;2022-12-18T08:17:33;21.10;;;17.92;;
351;SDS011;164;50.784;6.496;2022-12-18T08:20:04;22.55;;;16.92;;
351;SDS011;164;50.784;6.496;2022-12-18T08:22:36;25.38;;;18.40;;
351;SDS011;164;50.784;6.496;2022-12-18T08:25:07;21.65;;;18.35;;
351;SDS011;164;50.784;6.496;2022-12-18T08:27:46;27.80;;;19.00;;
351;SDS011;164;50.784;6.496;2022-12-18T08:30:21;22.45;;;18.83;;
351;SDS011;164;50.784;6.496;2022-12-18T08:32:52;22.60;;;19.67;;
351;SDS011;164;50.784;6.496;2022-12-18T08:35:21;21.58;;;19.13;;
351;SDS011;164;50.784;6.496;2022-12-18T08:37:50;24.77;;;18.00;;
351;SDS011;164;50.784;6.496;2022-12-18T08:40:29;23.25;;;18.98;;
351;SDS011;164;50.784;6.496;2022-12-18T08:42:59;23.10;;;18.27;;
351;SDS011;164;50.784;6.496;2022-12-18T08:46:06;21.42;;;18.58;;
351;SDS011;164;50.784;6.496;2022-12-18T08:48:47;24.27;;;18.70;;
351;SDS011;164;50.784;6.496;2022-12-18T08:51:23;21.13;;;17.85;;
351;SDS011;164;50.784;6.496;2022-12-18T08:53:53;18.63;;;17.42;;
351;SDS011;164;50.784;6.496;2022-12-18T08:56:24;21.58;;;19.02;;
351;SDS011;164;50.784;6.496;2022-12-18T08:59:03;21.88;;;19.02;;
351;SDS011;164;50.784;6.496;2022-12-18T09:01:35;20.05;;;19.10;;
351;SDS011;164;50.784;6.496;2022-12-18T09:04:07;21.42;;;18.50;;
351;SDS011;164;50.784;6.496;2022-12-18T09:06:35;20.15;;;18.27;;
351;SDS011;164;50.784;6.496;2022-12-18T09:09:09;24.77;;;20.50;;
351;SDS011;164;50.784;6.496;2022-12-18T09:11:37;20.88;;;17.65;;
351;SDS011;164;50.784;6.496;2022-12-18T09:14:08;21.90;;;18.08;;
351;SDS011;164;50.784;6.496;2022-12-18T09:19:31;21.27;;;18.38;;
351;SDS011;164;50.784;6.496;2022-12-18T09:22:12;26.23;;;20.10;;
351;SDS011;164;50.784;6.496;2022-12-18T09:24:56;23.00;;;20.70;;
351;SDS011;164;50.784;6.496;2022-12-18T09:27:23;27.23;;;20.88;;
351;SDS011;164;50.784;6.496;2022-12-18T09:29:53;21.42;;;20.35;;
351;SDS011;164;50.784;6.496;2022-12-18T09:32:26;24.00;;;19.23;;
351;SDS011;164;50.784;6.496;2022-12-18T09:34:57;21.80;;;19.40;;
351;SDS011;164;50.784;6.496;2022-12-18T09:37:24;18.52;;;17.63;;
351;SDS011;164;50.784;6.496;2022-12-18T09:39:52;20.38;;;18.20;;
351;SDS011;164;50.784;6.496;2022-12-18T09:42:20;24.05;;;22.02;;
351;SDS011;164;50.784;6.496;2022-12-18T09:45:04;22.30;;;18.85;;
351;SDS011;164;50.784;6.496;2022-12-18T09:47:42;21.48;;;19.70;;
351;SDS011;164;50.784;6.496;2022-12-18T09:50:22;19.55;;;18.42;;
351;SDS011;164;50.784;6.496;2022-12-18T09:52:52;21.70;;;17.50;;
351;SDS011;164;50.784;6.496;2022-12-18T09:55:38;21.95;;;19.35;;
351;SDS011;164;50.784;6.496;2022-12-18T09:58:13;20.08;;;19.10;;
351;SDS011;164;50.784;6.496;2022-12-18T10:00:46;25.75;;;19.73;;
351;SDS011;164;50.784;6.496;2022-12-18T10:03:16;20.50;;;19.25;;
351;SDS011;164;50.784;6.496;2022-12-18T10:05:49;23.27;;;19.40;;
351;SDS011;164;50.784;6.496;2022-12-18T10:08:19;22.80;;;20.42;;
351;SDS011;164;50.784;6.496;2022-12-18T10:10:51;22.00;;;19.23;;
351;SDS011;164;50.784;6.496;2022-12-18T10:13:23;20.33;;;18.52;;
351;SDS011;164;50.784;6.496;2022-12-18T10:15:58;21.33;;;19.02;;
351;SDS011;164;50.784;6.496;2022-12-18T10:18:31;21.75;;;19.42;;
351;SDS011;164;50.784;6.496;2022-12-18T10:21:05;22.73;;;19.73;;
351;SDS011;164;50.784;6.496;2022-12-18T10:23:38;22.27;;;20.40;;
351;SDS011;164;50.784;6.496;2022-12-18T10:26:09;19.48;;;18.35;;
351;SDS011;164;50.784;6.496;2022-12-18T10:28:40;21.63;;;20.40;;
351;SDS011;164;50.784;6.496;2022-12-18T10:31:10;20.42;;;19.20;;
351;SDS011;164;50.784;6.496;2022-12-18T10:33:48;20.23;;;18.88;;
351;SDS011;164;50.784;6.496;2022-12-18T10:36:16;19.90;;;18.15;;
351;SDS011;164;50.784;6.496;2022-12-18T10:38:49;19.30;;;18.20;;
351;SDS011;164;50.784;6.496;2022-12-18T10:41:23;21.13;;;19.50;;
351;SDS011;164;50.784;6.496;2022-12-18T10:44:10;20.30;;;18.63;;
351;SDS011;164;50.784;6.496;2022-12-18T10:46:39;22.08;;;18.98;;
351;SDS011;164;50.784;6.496;2022-12-18T10:49:17;22.60;;;20.05;;
351;SDS011;164;50.784;6.496;2022-12-18T10:51:52;20.52;;;19.52;;
351;SDS011;164;50.784;6.496;2022-12-18T10:54:36;21.67;;;19.48;;
351;SDS011;164;50.784;6.496;2022-12-18T10:57:28;22.27;;;21.05;;
351;SDS011;164;50.784;6.496;2022-12-18T11:02:44;19.75;;;18.75;;
351;SDS011;164;50.784;6.496;2022-12-18T11:05:26;23.70;;;19.98;;
351;SDS011;164;50.784;6.496;2022-12-18T11:08:11;19.13;;;18.13;;
351;SDS011;164;50.784;6.496;2022-12-18T11:10:55;20.38;;;19.23;;
351;SDS011;164;50.784;6.496;2022-12-18T11:13:25;20.40;;;18.35;;
351;SDS011;164;50.784;6.496;2022-12-18T11:15:53;20.52;;;19.52;;
351;SDS011;164;50.784;6.496;2022-12-18T11:18:25;20.50;;;18.85;;
351;SDS011;164;50.784;6.496;2022-12-18T11:20:53;18.98;;;18.00;;
351;SDS011;164;50.784;6.496;2022-12-18T11:23:32;21.17;;;20.10;;
351;SDS011;164;50.784;6.496;2022-12-18T11:25:59;21.98;;;19.23;;
351;SDS011;164;50.784;6.496;2022-12-18T11:28:35;19.30;;;18.30;;
351;SDS011;164;50.784;6.496;2022-12-18T11:31:17;21.80;;;20.02;;
351;SDS011;164;50.784;6.496;2022-12-18T11:33:52;18.88;;;17.92;;
351;SDS011;164;50.784;6.496;2022-12-18T11:36:30;21.63;;;18.00;;
351;SDS011;164;50.784;6.496;2022-12-18T11:39:06;19.65;;;17.77;;
351;SDS011;164;50.784;6.496;2022-12-18T11:41:37;20.23;;;18.50;;
351;SDS011;164;50.784;6.496;2022-12-18T11:44:24;21.30;;;19.02;;
351;SDS011;164;50.784;6.496;2022-12-18T11:46:55;20.45;;;18.98;;
351;SDS011;164;50.784;6.496;2022-12-18T11:49:24;19.25;;;18.20;;
351;SDS011;164;50.784;6.496;2022-12-18T11:51:58;18.48;;;17.55;;
351;SDS011;164;50.784;6.496;2022-12-18T11:54:29;19.27;;;17.85;;
351;SDS011;164;50.784;6.496;2022-12-18T11:57:02;19.15;;;18.17;;
351;SDS011;164;50.784;6.496;2022-12-18T11:59:41;19.05;;;18.10;;
351;SDS011;164;50.784;6.496;2022-12-18T12:02:36;19.50;;;18.50;;
351;SDS011;164;50.784;6.496;2022-12-18T12:05:21;20.90;;;19.27;;
351;SDS011;164;50.784;6.496;2022-12-18T12:07:53;20.33;;;18.52;;
351;SDS011;164;50.784;6.496;2022-12-18T12:10:34;22.40;;;20.17;;
351;SDS011;164;50.784;6.496;2022-12-18T12:13:15;20.08;;;17.63;;
351;SDS011;164;50.784;6.496;2022-12-18T12:15:51;19.33;;;18.10;;
351;SDS011;164;50.784;6.496;2022-12-18T12:18:22;20.45;;;18.10;;
351;SDS011;164;50.784;6.496;2022-12-18T12:20:53;21.48;;;19.90;;
351;SDS011;164;50.784;6.496;2022-12-18T12:23:26;21.88;;;20.25;;
351;SDS011;164;50.784;6.496;2022-12-18T12:26:06;18.80;;;17.88;;
351;SDS011;164;50.784;6.496;2022-12-18T12:28:50;19.38;;;18.20;;
351;SDS011;164;50.784;6.496;2022-12-18T12:31:24;19.98;;;18.73;;
351;SDS011;164;50.784;6.496;2022-12-18T12:33:56;18.70;;;17.80;;
351;SDS011;164;50.784;6.496;2022-12-18T12:36:32;20.88;;;18.17;;
351;SDS011;164;50.784;6.496;2022-12-18T12:39:07;22.38;;;19.60;;
351;SDS011;164;50.784;6.496;2022-12-18T12:41:40;21.40;;;19.33;;
351;SDS011;164;50.784;6.496;2022-12-18T12:44:27;20.10;;;19.10;;
351;SDS011;164;50.784;6.496;2022-12-18T12:46:56;22.42;;;20.02;;
351;SDS011;164;50.784;6.496;2022-12-18T12:49:29;19.90;;;18.90;;
351;SDS011;164;50.784;6.496;2022-12-18T12:52:00;21.58;;;20.27;;
351;SDS011;164;50.784;6.496;2022-12-18T12:54:30;20.55;;;19.00;;
351;SDS011;164;50.784;6.496;2022-12-18T12:57:04;21.85;;;20.75;;
351;SDS011;164;50.784;6.496;2022-12-18T12:59:42;22.35;;;19.65;;
351;SDS011;164;50.784;6.496;2022-12-18T13:02:14;20.60;;;19.60;;
351;SDS011;164;50.784;6.496;2022-12-18T13:05:06;22.05;;;20.42;;
351;SDS011;164;50.784;6.496;2022-12-18T13:07:39;21.15;;;20.10;;
351;SDS011;164;50.784;6.496;2022-12-18T13:13:11;22.63;;;21.52;;
351;SDS011;164;50.784;6.496;2022-12-18T13:15:39;21.75;;;20.63;;
351;SDS011;164;50.784;6.496;2022-12-18T13:18:20;22.48;;;21.38;;
351;SDS011;164;50.784;6.496;2022-12-18T13:20:48;21.10;;;19.75;;
351;SDS011;164;50.784;6.496;2022-12-18T13:23:26;21.98;;;20.88;;
351;SDS011;164;50.784;6.496;2022-12-18T13:25:55;21.52;;;19.60;;
351;SDS011;164;50.784;6.496;2022-12-18T13:31:08;22.48;;;20.35;;
351;SDS011;164;50.784;6.496;2022-12-18T13:33:44;23.52;;;20.40;;
351;SDS011;164;50.784;6.496;2022-12-18T13:45:23;21.23;;;20.13;;
351;SDS011;164;50.784;6.496;2022-12-18T13:48:03;21.02;;;19.25;;
351;SDS011;164;50.784;6.496;2022-12-18T13:50:34;22.38;;;20.33;;
351;SDS011;164;50.784;6.496;2022-12-18T13:53:11;22.33;;;21.17;;
351;SDS011;164;50.784;6.496;2022-12-18T13:55:52;22.55;;;21.45;;
351;SDS011;164;50.784;6.496;2022-12-18T13:58:24;22.05;;;20.95;;
351;SDS011;164;50.784;6.496;2022-12-18T14:00:51;21.73;;;20.65;;
351;SDS011;164;50.784;6.496;2022-12-18T14:03:24;21.08;;;20.02;;
351;SDS011;164;50.784;6.496;2022-12-18T14:05:56;23.02;;;21.75;;
351;SDS011;164;50.784;6.496;2022-12-18T14:08:29;22.95;;;20.65;;
351;SDS011;164;50.784;6.496;2022-12-18T14:10:59;21.88;;;20.77;;
351;SDS011;164;50.784;6.496;2022-12-18T14:13:28;22.20;;;21.02;;
351;SDS011;164;50.784;6.496;2022-12-18T14:15:56;21.92;;;20.27;;
351;SDS011;164;50.784;6.496;2022-12-18T14:18:29;23.00;;;21.38;;
351;SDS011;164;50.784;6.496;2022-12-18T14:20:59;23.67;;;20.63;;
351;SDS011;164;50.784;6.496;2022-12-18T14:23:36;23.70;;;21.52;;
351;SDS011;164;50.784;6.496;2022-12-18T14:26:20;21.88;;;20.77;;
351;SDS011;164;50.784;6.496;2022-12-18T14:28:47;25.30;;;22.50;;
351;SDS011;164;50.784;6.496;2022-12-18T14:31:18;21.90;;;20.35;;
351;SDS011;164;50.784;6.496;2022-12-18T14:33:49;27.15;;;23.05;;
351;SDS011;164;50.784;6.496;2022-12-18T14:36:17;24.73;;;22.55;;
351;SDS011;164;50.784;6.496;2022-12-18T14:38:48;23.00;;;21.92;;
351;SDS011;164;50.784;6.496;2022-12-18T14:41:18;23.13;;;21.58;;
351;SDS011;164;50.784;6.496;2022-12-18T14:43:47;23.52;;;22.13;;
351;SDS011;164;50.784;6.496;2022-12-18T14:46:33;21.70;;;20.60;;
351;SDS011;164;50.784;6.496;2022-12-18T14:49:14;22.90;;;21.63;;
351;SDS011;164;50.784;6.496;2022-12-18T14:51:46;24.63;;;22.30;;
351;SDS011;164;50.784;6.496;2022-12-18T14:54:32;25.08;;;22.13;;
351;SDS011;164;50.784;6.496;2022-12-18T14:57:01;26.85;;;22.98;;
351;SDS011;164;50.784;6.496;2022-12-18T14:59:29;23.15;;;21.60;;
351;SDS011;164;50.784;6.496;2022-12-18T15:02:01;25.17;;;23.08;;
351;SDS011;164;50.784;6.496;2022-12-18T15:04:32;22.92;;;21.83;;
351;SDS011;164;50.784;6.496;2022-12-18T15:07:05;25.75;;;22.88;;
351;SDS011;164;50.784;6.496;2022-12-18T15:09:40;26.75;;;23.85;;
351;SDS011;164;50.784;6.496;2022-12-18T15:12:24;31.48;;;26.23;;
351;SDS011;164;50.784;6.496;2022-12-18T15:14:56;25.17;;;22.17;;
351;SDS011;164;50.784;6.496;2022-12-18T15:17:26;25.70;;;24.10;;
351;SDS011;164;50.784;6.496;2022-12-18T15:19:58;24.40;;;23.20;;
351;SDS011;164;50.784;6.496;2022-12-18T15:22:30;27.13;;;24.23;;
351;SDS011;164;50.784;6.496;2022-12-18T15:24:59;25.02;;;23.08;;
351;SDS011;164;50.784;6.496;2022-12-18T15:27:30;24.20;;;22.77;;
351;SDS011;164;50.784;6.496;2022-12-18T15:30:19;28.33;;;23.80;;
351;SDS011;164;50.784;6.496;2022-12-18T15:32:49;23.25;;;21.20;;
351;SDS011;164;50.784;6.496;2022-12-18T15:35:22;23.88;;;21.20;;
351;SDS011;164;50.784;6.496;2022-12-18T15:37:50;23.02;;;21.95;;
351;SDS011;164;50.784;6.496;2022-12-18T15:40:18;24.65;;;23.45;;
351;SDS011;164;50.784;6.496;2022-12-18T15:42:46;25.67;;;24.40;;
351;SDS011;164;50.784;6.496;2022-12-18T15:45:31;25.00;;;23.80;;
351;SDS011;164;50.784;6.496;2022-12-18T15:48:07;25.17;;;23.20;;
351;SDS011;164;50.784;6.496;2022-12-18T15:50:44;28.10;;;24.63;;
351;SDS011;164;50.784;6.496;2022-12-18T15:53:17;29.67;;;24.65;;
351;SDS011;164;50.784;6.496;2022-12-18T15:55:44;28.20;;;24.95;;
351;SDS011;164;50.784;6.496;2022-12-18T15:58:29;24.42;;;23.05;;
351;SDS011;164;50.784;6.496;2022-12-18T16:00:57;24.98;;;22.77;;
351;SDS011;164;50.784;6.496;2022-12-18T16:03:27;27.50;;;24.17;;
351;SDS011;164;50.784;6.496;2022-12-18T16:06:03;26.55;;;23.92;;
351;SDS011;164;50.784;6.496;2022-12-18T16:08:31;30.13;;;26.13;;
351;SDS011;164;50.784;6.496;2022-12-18T16:11:00;26.10;;;24.65;;
351;SDS011;164;50.784;6.496;2022-12-18T16:13:30;26.52;;;25.15;;
351;SDS011;164;50.784;6.496;2022-12-18T16:15:57;27.40;;;24.65;;
351;SDS011;164;50.784;6.496;2022-12-18T16:18:28;28.63;;;24.75;;
351;SDS011;164;50.784;6.496;2022-12-18T16:21:02;26.10;;;23.65;;
351;SDS011;164;50.784;6.496;2022-12-18T16:23:29;27.80;;;25.42;;